Time;durP1;ratioP1;P1;durP2;ratioP2;P2;SDS_P1;SDS_P2;PMS_P1;PMS_P2;Temp;Humidity;BMP_temperature;BMP_pressure;BME280_temperature;BME280_humidity;BME280_pressure;Samples;Min_cycle;Max_cycle;Signal;HPM_P1;HPM_P2
2023/07/23 00:00:30;;;;;;;13.87;7.47;;;14.80;99.90;;;;;;5036737;28;20318;-73
2023/07/23 00:02:56;;;;;;;14.87;7.60;;;14.80;99.90;;;;;;5045802;28;20118;-73
2023/07/23 00:05:26;;;;;;;14.10;7.40;;;14.70;99.90;;;;;;5037458;28;20287;-73
2023/07/23 00:07:55;;;;;;;14.80;7.90;;;14.70;99.90;;;;;;5048239;28;20658;-73
2023/07/23 00:10:21;;;;;;;18.20;8.57;;;14.70;99.90;;;;;;5044345;28;20307;-73
2023/07/23 00:12:46;;;;;;;14.80;8.13;;;14.70;99.90;;;;;;5032922;28;20280;-73
2023/07/23 00:15:13;;;;;;;16.53;8.23;;;14.70;99.90;;;;;;5045500;28;20037;-73
2023/07/23 00:17:39;;;;;;;14.70;8.23;;;14.60;99.90;;;;;;5044205;28;20362;-73
2023/07/23 00:20:07;;;;;;;16.40;8.13;;;14.60;99.90;;;;;;5027692;28;20386;-73
2023/07/23 00:22:33;;;;;;;13.87;7.23;;;14.60;99.90;;;;;;5034170;28;20276;-73
2023/07/23 00:24:59;;;;;;;15.30;8.23;;;14.60;99.90;;;;;;5047537;28;20283;-73
2023/07/23 00:27:25;;;;;;;16.47;8.73;;;14.50;99.90;;;;;;5052940;28;20294;-73
2023/07/23 00:29:51;;;;;;;15.33;8.03;;;14.50;99.90;;;;;;5047214;28;20374;-73
2023/07/23 00:32:17;;;;;;;14.03;7.90;;;14.50;99.90;;;;;;5043558;28;20049;-73
2023/07/23 00:34:42;;;;;;;14.63;7.70;;;14.50;99.90;;;;;;5037370;28;20034;-73
2023/07/23 00:37:09;;;;;;;16.63;7.53;;;14.50;99.90;;;;;;5046378;28;20133;-73
2023/07/23 00:39:34;;;;;;;14.23;7.87;;;14.50;99.90;;;;;;5044408;28;20040;-73
2023/07/23 00:42:00;;;;;;;15.70;8.00;;;14.50;99.90;;;;;;5042341;28;20287;-73
2023/07/23 00:44:26;;;;;;;14.30;7.47;;;14.50;99.90;;;;;;5051352;28;20049;-73
2023/07/23 00:46:53;;;;;;;17.97;8.00;;;14.50;99.90;;;;;;5055560;28;20060;-73
2023/07/23 00:49:19;;;;;;;12.10;7.17;;;14.50;99.90;;;;;;5048415;28;20309;-73
2023/07/23 00:51:46;;;;;;;13.23;7.77;;;14.50;99.90;;;;;;5042599;28;20379;-73
2023/07/23 00:54:13;;;;;;;13.83;7.80;;;14.60;99.90;;;;;;5042262;28;20669;-73
2023/07/23 00:56:42;;;;;;;15.20;7.73;;;14.70;99.90;;;;;;5045678;28;20279;-73
2023/07/23 00:59:08;;;;;;;11.80;6.90;;;14.70;99.90;;;;;;5049937;28;20298;-73
2023/07/23 01:01:34;;;;;;;11.53;7.47;;;14.70;99.90;;;;;;5065745;28;20702;-73
2023/07/23 01:04:00;;;;;;;15.20;7.90;;;14.80;99.90;;;;;;5050727;28;20045;-73
2023/07/23 01:06:31;;;;;;;13.50;7.87;;;14.80;99.90;;;;;;5052663;28;20077;-73
2023/07/23 01:08:58;;;;;;;13.77;7.90;;;14.80;99.90;;;;;;5050468;28;20045;-73
2023/07/23 01:11:25;;;;;;;17.63;8.50;;;14.80;99.90;;;;;;5046352;28;20291;-73
2023/07/23 01:13:52;;;;;;;13.90;7.83;;;14.80;99.90;;;;;;5035869;28;20796;-73
2023/07/23 01:16:19;;;;;;;12.63;7.13;;;14.80;99.90;;;;;;5041706;28;21028;-73
2023/07/23 01:18:45;;;;;;;13.27;6.77;;;14.80;99.90;;;;;;5042234;28;20295;-73
2023/07/23 01:21:11;;;;;;;12.90;6.90;;;14.80;99.90;;;;;;5037764;28;20283;-73
2023/07/23 01:23:37;;;;;;;14.07;7.60;;;14.80;99.90;;;;;;5041982;28;20128;-73
2023/07/23 01:26:03;;;;;;;13.13;7.33;;;14.80;99.90;;;;;;5043687;28;20374;-74
2023/07/23 01:28:29;;;;;;;12.87;7.53;;;14.80;99.90;;;;;;5020127;28;20041;-74
2023/07/23 01:30:55;;;;;;;15.03;7.93;;;14.80;99.90;;;;;;5037605;28;20310;-74
2023/07/23 01:33:22;;;;;;;15.97;7.53;;;14.80;99.90;;;;;;5048600;28;20398;-74
2023/07/23 01:35:52;;;;;;;13.60;7.40;;;14.70;99.90;;;;;;5037413;28;20317;-74
2023/07/23 01:38:18;;;;;;;12.23;7.33;;;14.70;99.90;;;;;;5042252;28;20289;-74
2023/07/23 01:40:44;;;;;;;18.10;7.93;;;14.70;99.90;;;;;;5028171;28;20298;-74
2023/07/23 01:43:11;;;;;;;12.60;7.13;;;14.70;99.90;;;;;;5033493;28;20291;-74
2023/07/23 01:45:37;;;;;;;15.37;7.70;;;14.70;99.90;;;;;;5034592;28;20283;-74
2023/07/23 01:48:02;;;;;;;15.43;7.97;;;14.70;99.90;;;;;;5035607;28;20345;-74
2023/07/23 01:50:28;;;;;;;15.20;7.97;;;14.70;99.90;;;;;;5042719;28;20045;-74
2023/07/23 01:52:54;;;;;;;15.13;7.97;;;14.70;99.90;;;;;;5042538;28;20072;-74
2023/07/23 01:55:19;;;;;;;13.40;7.60;;;14.60;99.90;;;;;;5049852;28;20106;-74
2023/07/23 01:57:45;;;;;;;13.47;7.13;;;14.60;99.90;;;;;;5042418;28;20413;-74
2023/07/23 02:00:11;;;;;;;15.73;7.47;;;14.60;99.90;;;;;;5050627;28;20489;-74
2023/07/23 02:02:37;;;;;;;13.73;7.63;;;14.60;99.90;;;;;;5049443;28;20148;-74
2023/07/23 02:05:03;;;;;;;12.20;6.83;;;14.60;99.90;;;;;;5046476;28;20342;-74
2023/07/23 02:07:28;;;;;;;15.23;7.77;;;14.60;99.90;;;;;;5041134;28;20041;-74
2023/07/23 02:09:54;;;;;;;12.43;6.93;;;14.50;99.90;;;;;;5039837;28;20352;-74
2023/07/23 02:12:20;;;;;;;14.03;7.40;;;14.50;99.90;;;;;;5037827;28;20497;-74
2023/07/23 02:14:45;;;;;;;14.23;7.57;;;14.50;99.90;;;;;;5029434;28;20100;-74
2023/07/23 02:17:11;;;;;;;13.60;7.70;;;14.50;99.90;;;;;;5030384;28;20033;-74
2023/07/23 02:19:37;;;;;;;12.23;6.70;;;14.50;99.90;;;;;;5044029;28;20101;-74
2023/07/23 02:22:05;;;;;;;10.37;6.03;;;14.50;99.90;;;;;;5047153;28;20041;-74
2023/07/23 02:24:31;;;;;;;13.00;7.60;;;14.40;99.90;;;;;;5030754;28;20124;-74
2023/07/23 02:26:56;;;;;;;12.77;6.97;;;14.40;99.90;;;;;;5020389;28;20379;-74
2023/07/23 02:29:22;;;;;;;11.90;6.90;;;14.40;99.90;;;;;;5037423;28;20040;-74
2023/07/23 02:31:48;;;;;;;13.10;7.10;;;14.40;99.90;;;;;;5030624;28;20461;-74
2023/07/23 02:34:14;;;;;;;14.17;7.20;;;14.40;99.90;;;;;;5041525;28;20172;-74
2023/07/23 02:36:40;;;;;;;13.50;7.00;;;14.40;99.90;;;;;;5030468;28;20287;-74
2023/07/23 02:39:06;;;;;;;17.33;7.50;;;14.30;99.90;;;;;;5043292;28;20303;-74
2023/07/23 02:41:32;;;;;;;11.93;7.10;;;14.30;99.90;;;;;;5024944;28;20324;-74
2023/07/23 02:43:57;;;;;;;13.37;7.90;;;14.30;99.90;;;;;;5047119;28;20045;-74
2023/07/23 02:46:23;;;;;;;12.03;7.33;;;14.30;99.90;;;;;;5035848;28;20353;-74
2023/07/23 02:48:49;;;;;;;14.93;7.83;;;14.30;99.90;;;;;;5034866;28;20060;-74
2023/07/23 02:51:15;;;;;;;12.00;7.07;;;14.30;99.90;;;;;;5033332;28;20049;-74
2023/07/23 02:53:40;;;;;;;15.13;7.23;;;14.30;99.90;;;;;;5037041;28;20552;-74
2023/07/23 02:56:06;;;;;;;11.97;7.73;;;14.30;99.90;;;;;;5032731;28;20045;-74
2023/07/23 02:58:31;;;;;;;14.57;7.87;;;14.30;99.90;;;;;;5036348;28;20045;-74
2023/07/23 03:00:57;;;;;;;15.27;7.70;;;14.30;99.90;;;;;;5037681;28;20460;-74
2023/07/23 03:03:24;;;;;;;13.00;7.20;;;14.30;99.90;;;;;;5003369;28;20064;-74
2023/07/23 03:05:50;;;;;;;14.67;7.63;;;14.40;99.90;;;;;;5006730;28;20133;-74
2023/07/23 03:08:15;;;;;;;13.50;7.63;;;14.40;99.90;;;;;;4988563;28;20377;-74
2023/07/23 03:10:42;;;;;;;14.37;8.20;;;14.40;99.90;;;;;;5004040;28;20045;-75
2023/07/23 03:13:09;;;;;;;11.63;7.83;;;14.40;99.90;;;;;;5007077;28;20041;-75
2023/07/23 03:15:35;;;;;;;18.73;8.40;;;14.40;99.90;;;;;;5005525;28;20391;-74
2023/07/23 03:18:02;;;;;;;12.37;7.33;;;14.40;99.90;;;;;;5004717;28;20323;-74
2023/07/23 03:20:28;;;;;;;14.13;8.03;;;14.40;99.90;;;;;;5002244;28;20291;-74
2023/07/23 03:22:54;;;;;;;12.30;8.20;;;14.40;99.90;;;;;;5007550;28;20296;-74
2023/07/23 03:25:20;;;;;;;13.43;8.33;;;14.40;99.90;;;;;;5000977;28;20342;-74
2023/07/23 03:27:46;;;;;;;13.53;7.80;;;14.40;99.90;;;;;;5029453;28;20284;-74
2023/07/23 03:30:12;;;;;;;14.13;7.83;;;14.40;99.90;;;;;;4995972;28;20061;-74
2023/07/23 03:32:38;;;;;;;10.50;7.50;;;14.40;99.90;;;;;;5006466;28;20107;-74
2023/07/23 03:35:04;;;;;;;14.80;7.47;;;14.50;99.90;;;;;;5004539;28;20569;-74
2023/07/23 03:37:30;;;;;;;15.80;8.13;;;14.50;99.90;;;;;;4994207;28;20692;-74
2023/07/23 03:39:56;;;;;;;12.53;7.70;;;14.50;99.90;;;;;;5010575;28;20350;-74
2023/07/23 03:42:24;;;;;;;14.70;8.37;;;14.50;99.90;;;;;;5004912;28;20378;-74
2023/07/23 03:44:50;;;;;;;13.30;7.97;;;14.50;99.90;;;;;;5000841;28;20429;-74
2023/07/23 03:47:18;;;;;;;12.57;7.73;;;14.50;99.90;;;;;;4996623;28;20307;-74
2023/07/23 03:49:45;;;;;;;13.77;8.70;;;14.50;99.90;;;;;;4999941;28;20046;-74
2023/07/23 03:52:11;;;;;;;15.17;8.37;;;14.50;99.90;;;;;;4998461;28;20288;-74
2023/07/23 03:54:37;;;;;;;14.90;8.00;;;14.50;99.90;;;;;;4991445;28;20932;-74
2023/07/23 03:57:03;;;;;;;13.30;7.67;;;14.40;99.90;;;;;;5000349;28;20294;-74
2023/07/23 03:59:33;;;;;;;15.80;7.80;;;14.40;99.90;;;;;;5002955;28;20292;-74
2023/07/23 04:01:59;;;;;;;10.77;7.27;;;14.40;99.90;;;;;;5002150;28;20151;-74
2023/07/23 04:04:25;;;;;;;12.87;7.37;;;14.40;99.90;;;;;;4996626;28;20364;-75
2023/07/23 04:06:51;;;;;;;12.10;8.07;;;14.40;99.90;;;;;;4995027;28;20030;-75
2023/07/23 04:09:17;;;;;;;11.17;8.13;;;14.40;99.90;;;;;;4995586;28;20060;-75
2023/07/23 04:11:43;;;;;;;15.23;7.60;;;14.40;99.90;;;;;;4997662;28;20281;-75
2023/07/23 04:14:08;;;;;;;12.57;7.30;;;14.40;99.90;;;;;;5001608;28;20300;-74
2023/07/23 04:16:34;;;;;;;14.00;7.73;;;14.40;99.90;;;;;;5004353;28;20125;-74
2023/07/23 04:19:00;;;;;;;13.10;7.90;;;14.40;99.90;;;;;;5008520;28;20102;-74
2023/07/23 04:21:25;;;;;;;11.90;7.93;;;14.40;99.90;;;;;;5002081;28;20135;-74
2023/07/23 04:23:55;;;;;;;14.73;8.60;;;14.40;99.90;;;;;;5002693;28;20075;-74
2023/07/23 04:26:21;;;;;;;14.47;8.03;;;14.40;99.90;;;;;;5009085;28;20375;-74
2023/07/23 04:28:48;;;;;;;14.37;8.27;;;14.40;99.90;;;;;;5010426;28;20300;-74
2023/07/23 04:31:13;;;;;;;13.10;8.40;;;14.50;99.90;;;;;;5008580;28;20308;-74
2023/07/23 04:33:39;;;;;;;16.13;8.17;;;14.50;99.90;;;;;;4991912;28;20662;-74
2023/07/23 04:36:07;;;;;;;15.03;8.00;;;14.50;99.90;;;;;;5011769;28;20151;-74
2023/07/23 04:38:33;;;;;;;12.93;8.20;;;14.50;99.90;;;;;;4998394;28;20054;-74
2023/07/23 04:40:59;;;;;;;15.93;8.67;;;14.50;99.90;;;;;;5009703;28;20784;-74
2023/07/23 04:43:25;;;;;;;12.73;8.17;;;14.50;99.90;;;;;;5003558;28;20289;-74
2023/07/23 04:45:51;;;;;;;13.73;8.80;;;14.50;99.90;;;;;;4993503;28;20450;-74
2023/07/23 04:48:16;;;;;;;17.00;9.00;;;14.50;99.90;;;;;;5009477;28;20044;-74
2023/07/23 04:50:43;;;;;;;14.67;8.47;;;14.50;99.90;;;;;;4995636;28;20124;-74
2023/07/23 04:53:09;;;;;;;13.50;8.33;;;14.50;99.90;;;;;;5012149;28;20080;-74
2023/07/23 04:55:35;;;;;;;13.93;8.10;;;14.50;99.90;;;;;;5009832;28;20317;-74
2023/07/23 04:58:01;;;;;;;15.93;8.83;;;14.40;99.90;;;;;;5013666;28;20045;-74
2023/07/23 05:00:27;;;;;;;14.27;8.00;;;14.40;99.90;;;;;;5008560;28;20046;-74
2023/07/23 05:02:53;;;;;;;13.57;8.70;;;14.40;99.90;;;;;;5043786;28;20287;-73
2023/07/23 05:05:19;;;;;;;12.47;8.13;;;14.50;99.90;;;;;;5048802;28;20337;-73
2023/07/23 05:07:45;;;;;;;16.97;8.53;;;14.50;99.90;;;;;;5041375;28;20315;-73
2023/07/23 05:10:10;;;;;;;14.33;8.07;;;14.50;99.90;;;;;;5048278;28;20094;-73
2023/07/23 05:12:39;;;;;;;12.03;7.60;;;14.50;99.90;;;;;;5047745;28;20040;-73
2023/07/23 05:15:12;;;;;;;12.17;8.03;;;14.50;99.90;;;;;;5031835;28;20379;-74
2023/07/23 05:17:40;;;;;;;14.27;7.93;;;14.50;99.90;;;;;;5036726;28;20280;-74
2023/07/23 05:20:06;;;;;;;11.93;7.93;;;14.50;99.90;;;;;;5048362;28;20767;-74
2023/07/23 05:22:41;;;;;;;11.13;8.73;;;14.50;99.90;;;;;;5040355;28;20302;-74
2023/07/23 05:25:07;;;;;;;;;;;14.40;99.90;;;;;;5041436;28;20296;-74
2023/07/23 05:27:34;;;;;;;13.77;8.30;;;14.50;99.90;;;;;;5043515;28;20004;-74
2023/07/23 05:30:01;;;;;;;13.30;8.63;;;14.50;99.90;;;;;;5045140;28;20311;-74
2023/07/23 05:32:26;;;;;;;13.93;7.87;;;14.50;99.90;;;;;;5043497;28;20297;-74
2023/07/23 05:34:53;;;;;;;13.70;8.20;;;14.50;99.90;;;;;;5031552;28;20287;-74
2023/07/23 05:37:19;;;;;;;13.60;8.63;;;14.50;99.90;;;;;;5041247;28;20068;-74
2023/07/23 05:39:46;;;;;;;13.40;8.53;;;14.50;99.90;;;;;;5043874;28;20302;-74
2023/07/23 05:42:12;;;;;;;13.30;8.90;;;14.50;99.90;;;;;;5022218;28;20881;-74
2023/07/23 05:44:38;;;;;;;12.83;8.17;;;14.50;99.90;;;;;;5029557;28;20296;-74
2023/07/23 05:47:04;;;;;;;13.60;8.50;;;14.50;99.90;;;;;;5036560;28;20115;-73
2023/07/23 05:49:29;;;;;;;13.73;8.37;;;14.50;99.90;;;;;;5039069;28;21075;-73
2023/07/23 05:51:57;;;;;;;18.77;8.90;;;14.60;99.90;;;;;;5042140;28;20365;-73
2023/07/23 05:54:24;;;;;;;14.10;8.27;;;14.60;99.90;;;;;;5027339;28;20341;-73
2023/07/23 05:56:50;;;;;;;16.57;8.53;;;14.60;99.90;;;;;;5030012;28;20295;-73
2023/07/23 05:59:15;;;;;;;12.83;8.70;;;14.70;99.90;;;;;;5046633;28;20288;-73
2023/07/23 06:01:42;;;;;;;13.53;8.37;;;14.70;99.90;;;;;;5045926;28;20420;-74
2023/07/23 06:04:08;;;;;;;12.83;8.30;;;14.80;99.90;;;;;;5050102;28;20258;-74
2023/07/23 06:06:34;;;;;;;14.50;8.63;;;14.80;99.90;;;;;;5046706;28;20344;-74
2023/07/23 06:08:59;;;;;;;13.37;8.50;;;14.80;99.90;;;;;;5044095;28;20374;-73
2023/07/23 06:11:25;;;;;;;13.23;8.40;;;14.80;99.90;;;;;;5027393;28;20045;-73
2023/07/23 06:13:51;;;;;;;13.20;8.90;;;14.80;99.90;;;;;;5040288;28;20049;-74
2023/07/23 06:16:17;;;;;;;12.23;8.30;;;14.90;99.90;;;;;;5046866;28;20043;-74
2023/07/23 06:18:42;;;;;;;13.90;8.27;;;14.90;99.90;;;;;;5032319;28;20041;-74
2023/07/23 06:21:08;;;;;;;13.40;8.07;;;15.00;99.90;;;;;;5040997;28;20041;-74
2023/07/23 06:23:34;;;;;;;12.20;8.83;;;15.00;99.90;;;;;;5040373;28;20080;-74
2023/07/23 06:26:00;;;;;;;14.30;8.57;;;15.00;99.90;;;;;;5062293;28;20051;-74
2023/07/23 06:28:26;;;;;;;13.60;8.97;;;15.00;99.90;;;;;;5047331;28;20378;-74
2023/07/23 06:30:53;;;;;;;15.07;9.13;;;15.00;99.90;;;;;;5040143;28;20391;-74
2023/07/23 06:33:20;;;;;;;14.87;9.70;;;15.00;99.90;;;;;;5043504;28;20397;-74
2023/07/23 06:35:46;;;;;;;15.17;9.27;;;15.10;99.90;;;;;;5044825;28;20299;-74
2023/07/23 06:38:12;;;;;;;14.50;9.10;;;15.10;99.90;;;;;;5030257;28;20358;-74
2023/07/23 06:40:45;;;;;;;14.67;9.67;;;15.10;99.90;;;;;;5045213;28;20295;-74
2023/07/23 06:43:11;;;;;;;14.30;8.50;;;15.20;99.90;;;;;;5034074;28;20144;-74
2023/07/23 06:45:37;;;;;;;16.87;9.43;;;15.20;99.90;;;;;;5030834;28;20380;-74
2023/07/23 06:48:03;;;;;;;12.20;9.23;;;15.20;99.90;;;;;;5047642;28;20076;-74
2023/07/23 06:50:31;;;;;;;14.67;8.73;;;15.20;99.90;;;;;;5034353;28;20327;-74
2023/07/23 06:52:57;;;;;;;17.73;10.27;;;15.20;99.90;;;;;;5046130;28;20294;-75
2023/07/23 06:55:23;;;;;;;15.43;9.50;;;15.30;99.90;;;;;;5041457;28;20295;-74
2023/07/23 06:57:48;;;;;;;14.30;10.03;;;15.30;99.90;;;;;;5041879;28;20280;-74
2023/07/23 07:00:14;;;;;;;15.47;10.00;;;15.30;99.90;;;;;;5041266;28;20814;-74
2023/07/23 07:02:42;;;;;;;13.67;9.60;;;15.30;99.90;;;;;;5032144;28;20049;-74
2023/07/23 07:05:08;;;;;;;16.57;9.90;;;15.40;99.90;;;;;;5044098;28;20307;-74
2023/07/23 07:07:35;;;;;;;17.67;9.90;;;15.40;99.90;;;;;;5039705;28;20280;-74
2023/07/23 07:10:02;;;;;;;17.30;10.13;;;15.40;99.90;;;;;;5017693;28;20425;-74
2023/07/23 07:12:28;;;;;;;19.30;10.37;;;15.50;99.90;;;;;;5034723;28;20300;-74
2023/07/23 07:14:54;;;;;;;14.60;9.47;;;15.50;99.90;;;;;;5030446;28;20292;-74
2023/07/23 07:17:20;;;;;;;16.43;10.17;;;15.60;99.90;;;;;;5034810;28;20376;-74
2023/07/23 07:19:46;;;;;;;18.37;10.67;;;15.60;99.90;;;;;;5038828;28;20099;-74
2023/07/23 07:22:12;;;;;;;17.60;10.07;;;15.60;99.90;;;;;;5037659;28;20111;-75
2023/07/23 07:24:37;;;;;;;22.13;10.97;;;15.70;99.90;;;;;;5047827;28;20432;-75
2023/07/23 07:27:09;;;;;;;18.87;10.57;;;15.70;99.90;;;;;;5051544;28;20115;-74
2023/07/23 07:29:39;;;;;;;19.53;11.20;;;15.80;99.90;;;;;;5040399;28;20045;-75
2023/07/23 07:32:09;;;;;;;17.40;10.70;;;15.80;99.90;;;;;;5043959;28;20281;-74
2023/07/23 07:34:34;;;;;;;18.67;10.57;;;15.90;99.90;;;;;;5046237;28;20421;-74
2023/07/23 07:37:02;;;;;;;17.77;11.30;;;15.90;99.90;;;;;;5025415;28;20312;-74
2023/07/23 07:39:27;;;;;;;19.00;12.03;;;15.90;99.90;;;;;;5045645;28;20048;-74
2023/07/23 07:41:53;;;;;;;18.40;12.13;;;15.90;99.90;;;;;;5039328;28;20296;-74
2023/07/23 07:44:20;;;;;;;19.47;11.70;;;16.00;99.90;;;;;;5044082;28;20109;-74
2023/07/23 07:46:46;;;;;;;17.90;12.27;;;16.00;99.90;;;;;;5025164;28;20028;-74
2023/07/23 07:49:11;;;;;;;17.93;13.07;;;16.00;99.90;;;;;;5043319;28;20350;-74
2023/07/23 07:51:38;;;;;;;18.77;12.93;;;16.00;99.90;;;;;;5042165;28;20041;-74
2023/07/23 07:54:04;;;;;;;19.73;13.37;;;16.00;99.90;;;;;;5038334;28;20119;-73
2023/07/23 07:56:30;;;;;;;17.53;13.70;;;16.10;99.90;;;;;;5043011;28;20291;-74
2023/07/23 07:58:56;;;;;;;16.60;13.73;;;16.10;99.90;;;;;;5035342;28;20145;-74
2023/07/23 08:01:22;;;;;;;18.43;14.23;;;16.10;99.90;;;;;;5044118;28;20069;-72
2023/07/23 08:03:48;;;;;;;17.33;14.33;;;16.10;99.90;;;;;;5040411;28;20187;-74
2023/07/23 08:06:16;;;;;;;15.43;13.30;;;16.10;99.90;;;;;;5043710;28;20048;-73
2023/07/23 08:08:43;;;;;;;17.50;14.17;;;16.10;99.90;;;;;;5045154;28;20052;-73
2023/07/23 08:11:10;;;;;;;15.80;14.07;;;16.20;99.90;;;;;;5047239;28;20310;-73
2023/07/23 08:13:37;;;;;;;18.83;14.33;;;16.20;99.90;;;;;;5049301;28;20286;-74
2023/07/23 08:16:04;;;;;;;16.57;14.70;;;16.30;99.90;;;;;;5037987;28;20291;-73
2023/07/23 08:18:30;;;;;;;18.50;15.33;;;16.40;99.90;;;;;;5063997;28;20835;-74
2023/07/23 08:20:58;;;;;;;16.57;14.57;;;16.50;99.90;;;;;;5049005;28;20762;-73
2023/07/23 08:23:27;;;;;;;15.97;14.33;;;16.50;99.90;;;;;;5031352;28;20275;-74
2023/07/23 08:25:58;;;;;;;17.17;14.00;;;16.60;99.90;;;;;;5027513;28;20382;-73
2023/07/23 08:28:29;;;;;;;17.27;15.10;;;16.60;99.90;;;;;;5027662;28;20276;-73
2023/07/23 08:30:56;;;;;;;17.60;15.67;;;16.60;99.90;;;;;;5050358;28;20394;-74
2023/07/23 08:33:32;;;;;;;19.50;16.00;;;16.70;99.90;;;;;;5046773;28;20276;-73
2023/07/23 08:36:02;;;;;;;16.90;15.23;;;16.70;99.90;;;;;;5032200;28;20340;-73
2023/07/23 08:38:28;;;;;;;17.73;15.93;;;16.70;99.90;;;;;;5050014;28;20267;-72
2023/07/23 08:41:01;;;;;;;18.43;15.90;;;16.70;99.90;;;;;;5050113;28;20862;-74
2023/07/23 08:44:13;;;;;;;17.40;15.63;;;16.60;99.90;;;;;;5047974;28;20852;-74
2023/07/23 08:46:46;;;;;;;18.03;16.10;;;16.60;99.90;;;;;;5034134;28;20690;-72
2023/07/23 08:49:12;;;;;;;18.07;16.17;;;16.60;99.90;;;;;;5046794;28;20294;-73
2023/07/23 08:51:47;;;;;;;19.07;14.83;;;16.60;99.90;;;;;;5034429;28;20334;-73
2023/07/23 08:54:14;;;;;;;15.95;14.25;;;16.60;99.90;;;;;;5034400;28;20772;-74
2023/07/23 08:56:43;;;;;;;19.23;14.47;;;16.60;99.90;;;;;;5028635;28;20044;-73
2023/07/23 08:59:09;;;;;;;16.67;14.60;;;16.60;99.90;;;;;;5042426;28;20295;-73
2023/07/23 09:01:37;;;;;;;17.53;14.37;;;16.60;99.90;;;;;;5046934;28;20365;-73
2023/07/23 09:04:11;;;;;;;18.80;14.30;;;16.60;99.90;;;;;;5048301;28;20287;-73
2023/07/23 09:06:37;;;;;;;18.07;14.40;;;16.60;99.90;;;;;;5026088;28;20764;-74
2023/07/23 09:09:05;;;;;;;16.10;14.17;;;16.60;99.90;;;;;;5038052;28;20314;-72
2023/07/23 09:11:31;;;;;;;17.07;14.83;;;16.60;99.90;;;;;;5044829;28;20129;-73
2023/07/23 09:13:59;;;;;;;17.70;15.30;;;16.60;99.90;;;;;;5049624;28;20326;-73
2023/07/23 09:16:24;;;;;;;19.70;15.97;;;16.60;99.90;;;;;;5047240;28;20279;-73
2023/07/23 09:18:50;;;;;;;20.00;15.80;;;16.60;99.90;;;;;;5030406;28;20353;-73
2023/07/23 09:21:26;;;;;;;19.93;15.50;;;16.60;99.90;;;;;;5037316;28;20048;-72
2023/07/23 09:23:54;;;;;;;20.07;15.20;;;16.60;99.90;;;;;;5029541;28;20486;-72
2023/07/23 09:26:22;;;;;;;18.33;14.97;;;16.60;99.90;;;;;;5040432;28;20294;-72
2023/07/23 09:28:51;;;;;;;21.80;16.00;;;16.60;99.90;;;;;;5040663;28;20357;-72
2023/07/23 09:31:22;;;;;;;22.43;17.63;;;16.60;99.90;;;;;;5035605;28;20659;-72
2023/07/23 09:33:55;;;;;;;21.20;17.57;;;16.70;99.90;;;;;;5040799;28;20288;-72
2023/07/23 09:36:22;;;;;;;22.43;16.93;;;16.70;99.90;;;;;;5037418;28;20325;-72
2023/07/23 09:38:57;;;;;;;22.60;18.20;;;16.70;99.90;;;;;;5046901;28;20967;-72
2023/07/23 09:41:28;;;;;;;22.35;17.60;;;16.80;99.90;;;;;;5034234;28;20307;-72
2023/07/23 09:43:53;;;;;;;21.83;16.07;;;16.80;99.90;;;;;;5032973;28;20568;-72
2023/07/23 09:46:19;;;;;;;19.70;16.67;;;16.80;99.90;;;;;;5039374;28;20322;-72
2023/07/23 09:48:45;;;;;;;22.27;17.40;;;16.80;99.90;;;;;;5037638;28;20040;-72
2023/07/23 09:51:12;;;;;;;19.30;16.20;;;16.80;99.90;;;;;;5062714;28;20511;-72
2023/07/23 09:53:45;;;;;;;24.47;17.50;;;16.80;99.90;;;;;;5021211;28;20117;-72
2023/07/23 09:56:12;;;;;;;21.13;16.20;;;16.90;99.90;;;;;;5040241;28;20287;-72
2023/07/23 09:58:39;;;;;;;22.60;16.37;;;16.90;99.90;;;;;;5027749;28;20340;-72
2023/07/23 10:01:05;;;;;;;19.83;15.57;;;17.00;99.90;;;;;;5039435;28;20319;-72
2023/07/23 10:03:33;;;;;;;25.93;16.97;;;17.10;99.90;;;;;;5004297;28;20361;-72
2023/07/23 10:05:59;;;;;;;22.97;17.37;;;17.20;99.90;;;;;;5003329;28;20284;-72
2023/07/23 10:08:27;;;;;;;21.60;17.17;;;17.40;99.90;;;;;;4998419;28;20334;-72
2023/07/23 10:10:52;;;;;;;21.33;17.70;;;17.50;99.00;;;;;;5006291;28;20815;-72
2023/07/23 10:13:19;;;;;;;20.27;16.50;;;17.60;98.80;;;;;;5003617;28;20482;-72
2023/07/23 10:15:47;;;;;;;19.40;15.43;;;17.60;98.50;;;;;;5006485;28;20120;-72
2023/07/23 10:18:13;;;;;;;18.53;15.30;;;17.70;98.30;;;;;;4989707;28;20056;-72
2023/07/23 10:20:40;;;;;;;20.83;14.53;;;17.80;97.60;;;;;;5007041;28;20497;-72
2023/07/23 10:23:06;;;;;;;19.87;14.87;;;17.80;97.70;;;;;;5001011;28;20041;-72
2023/07/23 10:25:34;;;;;;;19.87;14.13;;;17.80;97.50;;;;;;5006565;28;20060;-72
2023/07/23 10:28:06;;;;;;;23.23;15.30;;;17.80;96.70;;;;;;5006422;28;20084;-72
2023/07/23 10:30:34;;;;;;;18.87;14.87;;;17.80;96.90;;;;;;4990846;28;20059;-72
2023/07/23 10:33:11;;;;;;;19.83;15.50;;;17.80;96.80;;;;;;5006726;28;20075;-72
2023/07/23 10:35:58;;;;;;;19.93;15.23;;;17.80;96.80;;;;;;4985247;28;20382;-72
2023/07/23 10:38:33;;;;;;;17.60;14.33;;;17.90;97.10;;;;;;5006952;28;20068;-72
2023/07/23 10:41:00;;;;;;;18.03;14.30;;;17.90;96.40;;;;;;5006138;28;20559;-72
2023/07/23 10:43:42;;;;;;;18.40;15.20;;;18.00;96.90;;;;;;5008429;28;20049;-72
2023/07/23 10:46:13;;;;;;;17.90;15.17;;;18.10;97.00;;;;;;5003463;28;20049;-72
2023/07/23 10:48:43;;;;;;;19.57;15.50;;;18.20;96.60;;;;;;5010683;28;20157;-72
2023/07/23 10:51:11;;;;;;;18.77;15.10;;;18.20;96.10;;;;;;5011506;28;20038;-72
2023/07/23 10:54:02;;;;;;;18.23;15.30;;;18.10;96.30;;;;;;5007553;28;20038;-72
2023/07/23 10:56:34;;;;;;;17.63;13.47;;;18.20;96.20;;;;;;5000160;28;21522;-72
2023/07/23 10:59:05;;;;;;;18.37;14.00;;;18.20;96.00;;;;;;4995938;28;20070;-72
2023/07/23 11:01:36;;;;;;;17.03;13.83;;;18.10;95.50;;;;;;4987998;28;20044;-72
2023/07/23 11:04:08;;;;;;;18.17;13.67;;;18.10;95.60;;;;;;5049490;28;20057;-72
2023/07/23 11:06:34;;;;;;;21.17;14.60;;;18.00;96.10;;;;;;5039808;28;20040;-72
2023/07/23 11:09:05;;;;;;;17.77;14.37;;;18.00;96.40;;;;;;5043497;28;20076;-72
2023/07/23 11:11:38;;;;;;;16.30;13.80;;;17.90;96.30;;;;;;5045022;28;20124;-72
2023/07/23 11:14:23;;;;;;;16.77;13.33;;;17.80;96.70;;;;;;5063144;28;20059;-72
2023/07/23 11:16:57;;;;;;;17.20;15.05;;;17.70;97.00;;;;;;5041105;28;20697;-72
2023/07/23 11:19:24;;;;;;;21.00;15.20;;;17.70;97.40;;;;;;5035824;28;20128;-72
2023/07/23 11:21:56;;;;;;;18.23;14.63;;;17.60;97.80;;;;;;5032337;28;20041;-72
2023/07/23 11:24:23;;;;;;;20.90;15.23;;;17.50;98.30;;;;;;5044117;28;20127;-72
2023/07/23 11:26:51;;;;;;;17.73;15.77;;;17.50;98.60;;;;;;5042120;28;20035;-72
2023/07/23 11:29:17;;;;;;;19.37;14.67;;;17.40;99.00;;;;;;5037639;28;20115;-72
2023/07/23 11:31:44;;;;;;;16.77;15.07;;;17.40;99.40;;;;;;5039956;28;20491;-72
2023/07/23 11:34:12;;;;;;;17.67;15.60;;;17.40;99.30;;;;;;5038073;28;20348;-72
2023/07/23 11:36:38;;;;;;;16.73;14.57;;;17.40;99.30;;;;;;5045731;28;20060;-72
2023/07/23 11:39:05;;;;;;;16.50;14.73;;;17.40;99.50;;;;;;5017963;28;20123;-72
2023/07/23 11:41:37;;;;;;;17.73;14.27;;;17.40;99.70;;;;;;5047194;28;20044;-72
2023/07/23 11:44:03;;;;;;;15.07;13.03;;;17.50;99.90;;;;;;5038362;28;20146;-72
2023/07/23 11:46:34;;;;;;;15.97;14.03;;;17.60;99.90;;;;;;5033558;28;20041;-72
2023/07/23 11:49:00;;;;;;;15.23;12.70;;;17.70;99.80;;;;;;5042653;28;20101;-72
2023/07/23 11:51:33;;;;;;;11.50;10.30;;;17.80;99.70;;;;;;5039509;28;20041;-72
2023/07/23 11:54:07;;;;;;;12.23;10.73;;;17.80;99.10;;;;;;5023935;28;20045;-72
2023/07/23 11:56:45;;;;;;;13.00;10.93;;;17.80;99.00;;;;;;5041966;28;20168;-72
2023/07/23 11:59:13;;;;;;;12.40;10.30;;;17.90;98.90;;;;;;5037007;28;20752;-72
2023/07/23 12:01:40;;;;;;;12.10;10.20;;;18.00;99.10;;;;;;5028403;28;20321;-72
2023/07/23 12:04:07;;;;;;;11.23;9.77;;;18.20;98.80;;;;;;5041541;28;20052;-72
2023/07/23 12:06:40;;;;;;;13.13;11.53;;;18.40;98.10;;;;;;5048467;28;20102;-72
2023/07/23 12:09:11;;;;;;;11.97;10.77;;;18.60;96.50;;;;;;5032329;28;20037;-72
2023/07/23 12:11:39;;;;;;;12.60;11.30;;;18.70;96.40;;;;;;5024967;28;20504;-72
2023/07/23 12:14:06;;;;;;;12.90;11.20;;;18.80;96.30;;;;;;5045651;28;20049;-72
2023/07/23 12:16:34;;;;;;;11.50;10.13;;;19.00;95.50;;;;;;5052893;28;20497;-72
2023/07/23 12:19:12;;;;;;;11.10;9.87;;;19.20;94.90;;;;;;5045560;28;20049;-72
2023/07/23 12:21:40;;;;;;;11.07;9.97;;;19.30;94.20;;;;;;5035330;28;20188;-72
2023/07/23 12:24:22;;;;;;;10.83;9.83;;;19.40;94.10;;;;;;5039683;28;20041;-72
2023/07/23 12:26:52;;;;;;;12.13;10.83;;;19.50;93.30;;;;;;5035061;28;20077;-72
2023/07/23 12:29:19;;;;;;;11.23;10.17;;;19.70;92.60;;;;;;5039106;28;20048;-72
2023/07/23 12:31:48;;;;;;;11.77;10.50;;;19.90;92.30;;;;;;5035789;28;20045;-72
2023/07/23 12:34:15;;;;;;;13.33;10.67;;;20.10;92.10;;;;;;5039573;28;20120;-72